KEVM

Details ICAO KEVM
Name EVELETH VIRGINIA MUNI
Region United States
Timezone America/Chicago (UTC-5.0)
Plans Departing 3
Arriving 2
Stats Elevation 1,378 ft / 420 m (AMSL)
Location 47.424577° -92.497596°
Runways 3
Magnetic Variation 0.779° W
Sunrise 2018-05-27 10:22:09 UTC / 2018-05-27 05:22:09 Local
Sunset 2018-05-28 01:55:05 UTC / 2018-05-27 20:55:05 Local
Advertisement - Login to hide

Runways

ID Width Length Bearing (true) Bearing (mag) Surface Threshold Offset Overrun Length
05 110 ft / 34 m 2,737 ft / 834 m 50.97° 51.75° Grass 0 ft / 0 m 0 ft / 0 m
09 100 ft / 30 m 4,204 ft / 1,281 m 94.28° 95.06° Asphalt 0 ft / 0 m 0 ft / 0 m
14 100 ft / 30 m 2,503 ft / 763 m 139.37° 140.15° Asphalt 0 ft / 0 m 0 ft / 0 m
23 110 ft / 34 m 2,737 ft / 834 m 230.97° 231.75° Grass 885 ft / 270 m 0 ft / 0 m
27 100 ft / 30 m 4,204 ft / 1,281 m 274.29° 275.07° Asphalt 0 ft / 0 m 0 ft / 0 m
32 100 ft / 30 m 2,503 ft / 763 m 319.37° 320.15° Asphalt 0 ft / 0 m 0 ft / 0 m

Map

Weather


0- 5 10 15 20 25 30 35+ Temperature / ° C

Clouds and Precipitation
Forecast for 2018-05-27 06:00 UTC. Updated 3 hours ago

Ground ~20,000 ft ~40,000 ft Winds

METAR

KEVM 270822Z AUTO 00000KT 1 1/4SM BR VV007 10/10 A2980 RMK AO2 VIS 1/2V5

TAF

Not found

Frequencies

Unicom 122.70 MHz CTAF/UNICOM
Approach 125.45 MHz DULUTH APP/DEP
Warning: Do not use this data for real-world aviation or navigation. No guarantee of current accuracy is given.